sensor_id;sensor_type;location;lat;lon;timestamp;pressure;altitude;pressure_sealevel;temperature;humidity
11912;BME280;6016;41.928;25.556;2023-07-16T00:00:34;99244.13;;;28.03;54.46
11912;BME280;6016;41.928;25.556;2023-07-16T00:03:01;99158.00;;;27.49;52.64
11912;BME280;6016;41.928;25.556;2023-07-16T00:05:29;99235.09;;;27.98;55.21
11912;BME280;6016;41.928;25.556;2023-07-16T00:07:56;99193.84;;;27.73;54.65
11912;BME280;6016;41.928;25.556;2023-07-16T00:10:23;99167.84;;;27.55;53.68
11912;BME280;6016;41.928;25.556;2023-07-16T00:12:49;99233.91;;;27.88;53.49
11912;BME280;6016;41.928;25.556;2023-07-16T00:15:16;99235.81;;;27.88;53.67
11912;BME280;6016;41.928;25.556;2023-07-16T00:17:43;99223.00;;;27.83;55.34
11912;BME280;6016;41.928;25.556;2023-07-16T00:20:11;99229.97;;;27.79;54.60
11912;BME280;6016;41.928;25.556;2023-07-16T00:22:39;99227.53;;;27.77;52.36
11912;BME280;6016;41.928;25.556;2023-07-16T00:25:06;99225.06;;;27.76;55.07
11912;BME280;6016;41.928;25.556;2023-07-16T00:27:33;99226.25;;;27.63;52.55
11912;BME280;6016;41.928;25.556;2023-07-16T00:30:00;99156.84;;;27.05;52.52
11912;BME280;6016;41.928;25.556;2023-07-16T00:32:27;99220.09;;;27.50;55.89
11912;BME280;6016;41.928;25.556;2023-07-16T00:34:54;99218.19;;;27.51;53.40
11912;BME280;6016;41.928;25.556;2023-07-16T00:37:21;99232.72;;;27.62;55.64
11912;BME280;6016;41.928;25.556;2023-07-16T00:39:49;99181.47;;;27.21;53.16
11912;BME280;6016;41.928;25.556;2023-07-16T00:42:16;99226.25;;;27.46;52.29
11912;BME280;6016;41.928;25.556;2023-07-16T00:44:43;99218.28;;;27.39;55.74
11912;BME280;6016;41.928;25.556;2023-07-16T00:47:10;99211.31;;;27.43;56.58
11912;BME280;6016;41.928;25.556;2023-07-16T00:49:37;99226.50;;;27.61;54.52
11912;BME280;6016;41.928;25.556;2023-07-16T00:52:05;99186.69;;;27.45;56.55
11912;BME280;6016;41.928;25.556;2023-07-16T00:54:34;99211.22;;;27.55;55.87
11912;BME280;6016;41.928;25.556;2023-07-16T00:57:04;99103.03;;;26.92;52.85
11912;BME280;6016;41.928;25.556;2023-07-16T00:59:30;99191.91;;;27.51;55.59
11912;BME280;6016;41.928;25.556;2023-07-16T01:01:57;99226.97;;;27.75;54.81
11912;BME280;6016;41.928;25.556;2023-07-16T01:04:24;99222.03;;;27.72;53.44
11912;BME280;6016;41.928;25.556;2023-07-16T01:06:53;99217.34;;;27.67;54.26
11912;BME280;6016;41.928;25.556;2023-07-16T01:09:22;99222.72;;;27.62;53.69
11912;BME280;6016;41.928;25.556;2023-07-16T01:11:49;99205.31;;;27.41;54.29
11912;BME280;6016;41.928;25.556;2023-07-16T01:14:19;99212.69;;;27.46;53.04
11912;BME280;6016;41.928;25.556;2023-07-16T01:16:46;99190.00;;;27.13;54.22
11912;BME280;6016;41.928;25.556;2023-07-16T01:19:13;99213.28;;;27.31;53.12
11912;BME280;6016;41.928;25.556;2023-07-16T01:21:45;99204.09;;;27.32;55.66
11912;BME280;6016;41.928;25.556;2023-07-16T01:24:45;99194.72;;;27.22;54.30
11912;BME280;6016;41.928;25.556;2023-07-16T01:27:42;99167.53;;;26.95;52.94
11912;BME280;6016;41.928;25.556;2023-07-16T01:30:15;99208.53;;;27.21;54.60
11912;BME280;6016;41.928;25.556;2023-07-16T01:32:42;99146.63;;;26.78;55.27
11912;BME280;6016;41.928;25.556;2023-07-16T01:35:11;99208.13;;;27.12;54.11
11912;BME280;6016;41.928;25.556;2023-07-16T01:37:39;99203.19;;;27.09;54.81
11912;BME280;6016;41.928;25.556;2023-07-16T01:40:08;99204.84;;;27.10;53.90
11912;BME280;6016;41.928;25.556;2023-07-16T01:42:35;99216.72;;;27.09;55.78
11912;BME280;6016;41.928;25.556;2023-07-16T01:45:02;99109.22;;;26.41;54.15
11912;BME280;6016;41.928;25.556;2023-07-16T01:47:39;99212.81;;;27.00;55.54
11912;BME280;6016;41.928;25.556;2023-07-16T01:50:08;99218.31;;;27.05;56.69
11912;BME280;6016;41.928;25.556;2023-07-16T01:52:34;99221.69;;;27.12;55.90
11912;BME280;6016;41.928;25.556;2023-07-16T01:55:01;99217.41;;;27.16;56.59
11912;BME280;6016;41.928;25.556;2023-07-16T01:57:28;99215.34;;;27.23;57.06
11912;BME280;6016;41.928;25.556;2023-07-16T01:59:55;99209.44;;;27.27;56.47
11912;BME280;6016;41.928;25.556;2023-07-16T02:02:21;99221.91;;;27.28;55.71
11912;BME280;6016;41.928;25.556;2023-07-16T02:04:50;99169.41;;;26.94;56.31
11912;BME280;6016;41.928;25.556;2023-07-16T02:07:16;99229.53;;;27.31;55.78
11912;BME280;6016;41.928;25.556;2023-07-16T02:09:43;99228.47;;;27.32;55.34
11912;BME280;6016;41.928;25.556;2023-07-16T02:12:10;99219.28;;;27.33;56.83
11912;BME280;6016;41.928;25.556;2023-07-16T02:14:37;99190.22;;;27.11;55.16
11912;BME280;6016;41.928;25.556;2023-07-16T02:17:04;99188.44;;;27.00;54.32
11912;BME280;6016;41.928;25.556;2023-07-16T02:19:31;99228.41;;;27.27;55.10
11912;BME280;6016;41.928;25.556;2023-07-16T02:21:59;99233.56;;;27.28;55.91
11912;BME280;6016;41.928;25.556;2023-07-16T02:24:26;99231.13;;;27.27;55.21
11912;BME280;6016;41.928;25.556;2023-07-16T02:26:53;99224.84;;;27.26;56.91
11912;BME280;6016;41.928;25.556;2023-07-16T02:29:19;99229.22;;;27.27;55.50
11912;BME280;6016;41.928;25.556;2023-07-16T02:31:46;99209.94;;;27.06;55.68
11912;BME280;6016;41.928;25.556;2023-07-16T02:34:14;99229.38;;;27.20;57.30
11912;BME280;6016;41.928;25.556;2023-07-16T02:36:40;99229.94;;;27.22;56.90
11912;BME280;6016;41.928;25.556;2023-07-16T02:39:08;99230.22;;;27.21;56.84
11912;BME280;6016;41.928;25.556;2023-07-16T02:41:35;99229.38;;;27.20;56.96
11912;BME280;6016;41.928;25.556;2023-07-16T02:44:04;99235.63;;;27.21;56.08
11912;BME280;6016;41.928;25.556;2023-07-16T02:46:31;99215.09;;;27.08;57.02
11912;BME280;6016;41.928;25.556;2023-07-16T02:48:58;99235.28;;;27.17;55.84
11912;BME280;6016;41.928;25.556;2023-07-16T02:51:25;99236.34;;;27.16;57.76
11912;BME280;6016;41.928;25.556;2023-07-16T02:53:52;99234.72;;;27.15;56.68
11912;BME280;6016;41.928;25.556;2023-07-16T02:56:20;99232.25;;;27.14;57.29
11912;BME280;6016;41.928;25.556;2023-07-16T02:58:47;99166.31;;;26.57;57.75
11912;BME280;6016;41.928;25.556;2023-07-16T03:01:14;99245.22;;;27.12;55.81
11912;BME280;6016;41.928;25.556;2023-07-16T03:03:41;99196.69;;;26.76;57.32
11912;BME280;6016;41.928;25.556;2023-07-16T03:06:07;99247.34;;;27.09;57.90
11912;BME280;6016;41.928;25.556;2023-07-16T03:08:34;99251.94;;;27.09;58.15
11912;BME280;6016;41.928;25.556;2023-07-16T03:11:01;99248.66;;;27.07;57.97
11912;BME280;6016;41.928;25.556;2023-07-16T03:13:29;99251.38;;;27.07;58.03
11912;BME280;6016;41.928;25.556;2023-07-16T03:15:56;99245.94;;;27.07;56.72
11912;BME280;6016;41.928;25.556;2023-07-16T03:18:27;99229.69;;;26.90;56.56
11912;BME280;6016;41.928;25.556;2023-07-16T03:20:55;99251.19;;;26.96;57.60
11912;BME280;6016;41.928;25.556;2023-07-16T03:23:22;99247.97;;;26.82;57.50
11912;BME280;6016;41.928;25.556;2023-07-16T03:25:49;99226.00;;;26.67;57.88
11912;BME280;6016;41.928;25.556;2023-07-16T03:28:16;99257.03;;;26.88;57.81
11912;BME280;6016;41.928;25.556;2023-07-16T03:30:46;99253.72;;;26.86;58.29
11912;BME280;6016;41.928;25.556;2023-07-16T03:33:13;99254.75;;;26.85;58.88
11912;BME280;6016;41.928;25.556;2023-07-16T03:35:42;99229.78;;;26.66;59.55
11912;BME280;6016;41.928;25.556;2023-07-16T03:38:09;99236.44;;;26.75;59.36
11912;BME280;6016;41.928;25.556;2023-07-16T03:40:37;99264.66;;;26.91;59.20
11912;BME280;6016;41.928;25.556;2023-07-16T03:43:03;99113.63;;;26.01;58.53
11912;BME280;6016;41.928;25.556;2023-07-16T03:45:30;99251.38;;;26.78;58.72
11912;BME280;6016;41.928;25.556;2023-07-16T03:47:59;99265.44;;;26.92;58.23
11912;BME280;6016;41.928;25.556;2023-07-16T03:50:25;99248.19;;;26.81;58.13
11912;BME280;6016;41.928;25.556;2023-07-16T03:52:52;99250.56;;;26.77;57.99
11912;BME280;6016;41.928;25.556;2023-07-16T03:55:19;99241.38;;;26.78;59.16
11912;BME280;6016;41.928;25.556;2023-07-16T03:57:46;99187.66;;;26.41;59.36
11912;BME280;6016;41.928;25.556;2023-07-16T04:00:13;99261.94;;;26.91;58.80
11912;BME280;6016;41.928;25.556;2023-07-16T04:02:40;99268.75;;;26.94;58.87
11912;BME280;6016;41.928;25.556;2023-07-16T04:05:09;99271.94;;;26.91;57.94
11912;BME280;6016;41.928;25.556;2023-07-16T04:07:36;99276.28;;;26.92;59.50
11912;BME280;6016;41.928;25.556;2023-07-16T04:10:03;99275.47;;;26.91;58.53
11912;BME280;6016;41.928;25.556;2023-07-16T04:12:30;99262.22;;;26.78;58.72
11912;BME280;6016;41.928;25.556;2023-07-16T04:14:58;99279.75;;;26.87;59.31
11912;BME280;6016;41.928;25.556;2023-07-16T04:17:25;99206.28;;;26.37;58.21
11912;BME280;6016;41.928;25.556;2023-07-16T04:19:52;99226.72;;;26.45;58.40
11912;BME280;6016;41.928;25.556;2023-07-16T04:22:20;99292.44;;;26.87;59.17
11912;BME280;6016;41.928;25.556;2023-07-16T04:24:47;99267.78;;;26.71;58.73
11912;BME280;6016;41.928;25.556;2023-07-16T04:27:14;99293.28;;;26.87;58.96
11912;BME280;6016;41.928;25.556;2023-07-16T04:29:40;99285.97;;;26.88;58.82
11912;BME280;6016;41.928;25.556;2023-07-16T04:32:07;99166.59;;;26.14;58.11
11912;BME280;6016;41.928;25.556;2023-07-16T04:34:34;99273.28;;;26.76;58.95
11912;BME280;6016;41.928;25.556;2023-07-16T04:37:01;99288.44;;;26.89;58.17
11912;BME280;6016;41.928;25.556;2023-07-16T04:39:29;99282.88;;;26.84;56.49
11912;BME280;6016;41.928;25.556;2023-07-16T04:41:56;99291.16;;;26.89;57.42
11912;BME280;6016;41.928;25.556;2023-07-16T04:44:22;99295.72;;;26.89;56.51
11912;BME280;6016;41.928;25.556;2023-07-16T04:46:49;99295.72;;;26.89;57.43
11912;BME280;6016;41.928;25.556;2023-07-16T04:49:16;99292.78;;;26.90;57.40
11912;BME280;6016;41.928;25.556;2023-07-16T04:51:43;99290.88;;;26.91;57.03
11912;BME280;6016;41.928;25.556;2023-07-16T04:54:10;99295.22;;;26.92;58.07
11912;BME280;6016;41.928;25.556;2023-07-16T04:56:38;99301.81;;;26.96;57.38
11912;BME280;6016;41.928;25.556;2023-07-16T04:59:04;99311.59;;;26.97;58.62
11912;BME280;6016;41.928;25.556;2023-07-16T05:01:32;99248.88;;;26.59;57.00
11912;BME280;6016;41.928;25.556;2023-07-16T05:03:58;99308.38;;;27.00;56.48
11912;BME280;6016;41.928;25.556;2023-07-16T05:06:25;99309.44;;;26.99;56.58
11912;BME280;6016;41.928;25.556;2023-07-16T05:08:52;99296.63;;;26.94;58.22
11912;BME280;6016;41.928;25.556;2023-07-16T05:11:19;99305.59;;;26.95;55.83
11912;BME280;6016;41.928;25.556;2023-07-16T05:13:47;99270.50;;;26.71;56.01
11912;BME280;6016;41.928;25.556;2023-07-16T05:16:14;99286.72;;;26.71;55.73
11912;BME280;6016;41.928;25.556;2023-07-16T05:18:41;99310.78;;;26.85;56.67
11912;BME280;6016;41.928;25.556;2023-07-16T05:21:07;99311.41;;;26.87;56.63
11912;BME280;6016;41.928;25.556;2023-07-16T05:23:34;99259.69;;;26.59;58.04
11912;BME280;6016;41.928;25.556;2023-07-16T05:26:01;99315.09;;;26.98;57.75
11912;BME280;6016;41.928;25.556;2023-07-16T05:28:28;99298.69;;;26.87;57.86
11912;BME280;6016;41.928;25.556;2023-07-16T05:31:00;99273.19;;;26.71;58.41
11912;BME280;6016;41.928;25.556;2023-07-16T05:33:27;99319.31;;;27.05;58.14
11912;BME280;6016;41.928;25.556;2023-07-16T05:35:54;99321.28;;;27.10;58.15
11912;BME280;6016;41.928;25.556;2023-07-16T05:38:21;99324.47;;;27.07;54.91
11912;BME280;6016;41.928;25.556;2023-07-16T05:40:48;99322.84;;;27.06;56.63
11912;BME280;6016;41.928;25.556;2023-07-16T05:43:14;99329.09;;;27.06;56.14
11912;BME280;6016;41.928;25.556;2023-07-16T05:45:41;99269.41;;;26.72;55.86
11912;BME280;6016;41.928;25.556;2023-07-16T05:48:09;99325.47;;;27.01;55.88
11912;BME280;6016;41.928;25.556;2023-07-16T05:50:37;99327.56;;;26.99;57.19
11912;BME280;6016;41.928;25.556;2023-07-16T05:53:04;99313.72;;;26.95;56.36
11912;BME280;6016;41.928;25.556;2023-07-16T05:55:30;99330.38;;;27.04;56.64
11912;BME280;6016;41.928;25.556;2023-07-16T05:57:57;99337.69;;;27.03;55.76
11912;BME280;6016;41.928;25.556;2023-07-16T06:00:24;99336.59;;;27.04;56.27
11912;BME280;6016;41.928;25.556;2023-07-16T06:02:51;99339.50;;;27.15;56.29
11912;BME280;6016;41.928;25.556;2023-07-16T06:05:19;99305.69;;;27.00;56.30
11912;BME280;6016;41.928;25.556;2023-07-16T06:07:46;99338.63;;;27.26;57.47
11912;BME280;6016;41.928;25.556;2023-07-16T06:10:13;99277.97;;;26.81;53.92
11912;BME280;6016;41.928;25.556;2023-07-16T06:12:40;99335.56;;;27.22;56.93
11912;BME280;6016;41.928;25.556;2023-07-16T06:15:07;99282.88;;;26.96;58.11
11912;BME280;6016;41.928;25.556;2023-07-16T06:17:35;99341.03;;;27.39;57.92
11912;BME280;6016;41.928;25.556;2023-07-16T06:20:01;99325.75;;;27.33;54.84
11912;BME280;6016;41.928;25.556;2023-07-16T06:22:30;99295.28;;;27.26;55.32
11912;BME280;6016;41.928;25.556;2023-07-16T06:24:56;99282.00;;;27.24;55.65
11912;BME280;6016;41.928;25.556;2023-07-16T06:27:24;99333.91;;;27.67;53.75
11912;BME280;6016;41.928;25.556;2023-07-16T06:29:51;99339.03;;;27.64;53.24
11912;BME280;6016;41.928;25.556;2023-07-16T06:32:18;99314.75;;;27.40;51.54
11912;BME280;6016;41.928;25.556;2023-07-16T06:34:45;99338.75;;;27.65;51.42
11912;BME280;6016;41.928;25.556;2023-07-16T06:37:12;99335.56;;;27.69;53.14
11912;BME280;6016;41.928;25.556;2023-07-16T06:39:40;99300.06;;;27.53;54.39
11912;BME280;6016;41.928;25.556;2023-07-16T06:42:07;99309.19;;;27.64;54.97
11912;BME280;6016;41.928;25.556;2023-07-16T06:44:34;99331.56;;;27.93;52.83
11912;BME280;6016;41.928;25.556;2023-07-16T06:47:01;99330.34;;;28.01;55.40
11912;BME280;6016;41.928;25.556;2023-07-16T06:49:30;99326.25;;;27.99;51.49
11912;BME280;6016;41.928;25.556;2023-07-16T06:51:57;99334.19;;;28.05;50.75
11912;BME280;6016;41.928;25.556;2023-07-16T06:54:23;99330.72;;;28.10;51.18
11912;BME280;6016;41.928;25.556;2023-07-16T06:56:52;99283.84;;;27.92;52.92
11912;BME280;6016;41.928;25.556;2023-07-16T06:59:18;99327.59;;;28.18;47.54
11912;BME280;6016;41.928;25.556;2023-07-16T07:01:45;99315.75;;;28.25;49.41
11912;BME280;6016;41.928;25.556;2023-07-16T07:04:12;99326.19;;;28.33;51.02
11912;BME280;6016;41.928;25.556;2023-07-16T07:06:39;99325.59;;;28.31;47.11
11912;BME280;6016;41.928;25.556;2023-07-16T07:09:06;99327.63;;;28.41;51.75
11912;BME280;6016;41.928;25.556;2023-07-16T07:11:33;99326.38;;;28.48;51.43
11912;BME280;6016;41.928;25.556;2023-07-16T07:14:01;99321.19;;;28.47;46.31
11912;BME280;6016;41.928;25.556;2023-07-16T07:16:28;99319.63;;;28.51;46.83
11912;BME280;6016;41.928;25.556;2023-07-16T07:18:56;99319.16;;;28.59;48.97
11912;BME280;6016;41.928;25.556;2023-07-16T07:21:23;99309.50;;;28.69;49.22
11912;BME280;6016;41.928;25.556;2023-07-16T07:23:49;99243.63;;;28.29;46.78
11912;BME280;6016;41.928;25.556;2023-07-16T07:26:16;99289.84;;;28.61;49.09
11912;BME280;6016;41.928;25.556;2023-07-16T07:28:43;99288.41;;;28.54;45.38
11912;BME280;6016;41.928;25.556;2023-07-16T07:31:11;99310.31;;;28.91;46.33
11912;BME280;6016;41.928;25.556;2023-07-16T07:33:38;99241.47;;;28.53;44.47
11912;BME280;6016;41.928;25.556;2023-07-16T07:36:05;99308.19;;;28.99;44.11
11912;BME280;6016;41.928;25.556;2023-07-16T07:38:32;99308.34;;;29.14;45.97
11912;BME280;6016;41.928;25.556;2023-07-16T07:40:59;99311.84;;;29.42;47.70
11912;BME280;6016;41.928;25.556;2023-07-16T07:43:26;99294.16;;;29.40;46.60
11912;BME280;6016;41.928;25.556;2023-07-16T07:45:53;99311.16;;;29.57;44.77
11912;BME280;6016;41.928;25.556;2023-07-16T07:48:21;99316.63;;;29.62;46.02
11912;BME280;6016;41.928;25.556;2023-07-16T07:50:48;99313.94;;;29.62;44.42
11912;BME280;6016;41.928;25.556;2023-07-16T07:53:16;99309.88;;;29.70;42.73
11912;BME280;6016;41.928;25.556;2023-07-16T07:55:44;99296.66;;;29.84;45.21
11912;BME280;6016;41.928;25.556;2023-07-16T07:58:11;99295.34;;;29.92;43.84
11912;BME280;6016;41.928;25.556;2023-07-16T08:00:38;99291.03;;;30.01;45.25
11912;BME280;6016;41.928;25.556;2023-07-16T08:03:05;99304.22;;;30.20;43.16
11912;BME280;6016;41.928;25.556;2023-07-16T08:05:33;99306.44;;;30.28;42.52
11912;BME280;6016;41.928;25.556;2023-07-16T08:08:00;99255.63;;;29.91;42.49
11912;BME280;6016;41.928;25.556;2023-07-16T08:10:29;99299.97;;;30.45;44.09
11912;BME280;6016;41.928;25.556;2023-07-16T08:12:56;99301.34;;;30.53;42.96
11912;BME280;6016;41.928;25.556;2023-07-16T08:15:23;99229.91;;;30.14;43.07
11912;BME280;6016;41.928;25.556;2023-07-16T08:17:50;99301.97;;;30.76;44.07
11912;BME280;6016;41.928;25.556;2023-07-16T08:20:16;99303.34;;;30.78;40.85
11912;BME280;6016;41.928;25.556;2023-07-16T08:22:45;99308.22;;;30.76;40.57
11912;BME280;6016;41.928;25.556;2023-07-16T08:25:11;99301.44;;;30.84;40.84
11912;BME280;6016;41.928;25.556;2023-07-16T08:27:38;99169.44;;;30.02;38.64
11912;BME280;6016;41.928;25.556;2023-07-16T08:30:06;99278.00;;;30.72;41.46
11912;BME280;6016;41.928;25.556;2023-07-16T08:32:33;99296.56;;;30.91;42.34
11912;BME280;6016;41.928;25.556;2023-07-16T08:35:00;99297.38;;;30.97;40.39
11912;BME280;6016;41.928;25.556;2023-07-16T08:37:27;99297.94;;;30.94;39.63
11912;BME280;6016;41.928;25.556;2023-07-16T08:39:55;99297.94;;;30.94;37.28
11912;BME280;6016;41.928;25.556;2023-07-16T08:42:22;99283.47;;;30.88;36.92
11912;BME280;6016;41.928;25.556;2023-07-16T08:44:50;99262.22;;;30.90;38.98
11912;BME280;6016;41.928;25.556;2023-07-16T08:47:17;99295.78;;;31.16;38.74
11912;BME280;6016;41.928;25.556;2023-07-16T08:49:50;99288.13;;;31.19;37.73
11912;BME280;6016;41.928;25.556;2023-07-16T08:52:20;99290.06;;;31.28;39.52
11912;BME280;6016;41.928;25.556;2023-07-16T08:54:47;99291.16;;;31.27;35.59
11912;BME280;6016;41.928;25.556;2023-07-16T08:57:15;99257.63;;;31.16;36.49
11912;BME280;6016;41.928;25.556;2023-07-16T08:59:43;99291.69;;;31.45;37.29
11912;BME280;6016;41.928;25.556;2023-07-16T09:02:11;99290.88;;;31.50;37.09
11912;BME280;6016;41.928;25.556;2023-07-16T09:04:39;99257.63;;;31.32;38.08
11912;BME280;6016;41.928;25.556;2023-07-16T09:07:06;99265.25;;;31.46;37.24
11912;BME280;6016;41.928;25.556;2023-07-16T09:09:32;99208.25;;;31.18;37.96
11912;BME280;6016;41.928;25.556;2023-07-16T09:11:59;99282.38;;;31.77;39.48
11912;BME280;6016;41.928;25.556;2023-07-16T09:14:27;99286.47;;;31.85;35.58
11912;BME280;6016;41.928;25.556;2023-07-16T09:16:54;99284.81;;;31.94;37.46
11912;BME280;6016;41.928;25.556;2023-07-16T09:19:21;99282.88;;;32.00;38.70
11912;BME280;6016;41.928;25.556;2023-07-16T09:21:48;99243.91;;;31.84;38.41
11912;BME280;6016;41.928;25.556;2023-07-16T09:24:16;99239.56;;;31.83;36.64
11912;BME280;6016;41.928;25.556;2023-07-16T09:26:49;99213.38;;;31.82;37.19
11912;BME280;6016;41.928;25.556;2023-07-16T09:29:16;99231.63;;;31.87;37.35
11912;BME280;6016;41.928;25.556;2023-07-16T09:31:54;99266.22;;;32.07;34.12
11912;BME280;6016;41.928;25.556;2023-07-16T09:34:21;99281.47;;;32.13;35.10
11912;BME280;6016;41.928;25.556;2023-07-16T09:36:49;99275.13;;;32.28;35.69
11912;BME280;6016;41.928;25.556;2023-07-16T09:39:17;99271.19;;;32.55;37.07
11912;BME280;6016;41.928;25.556;2023-07-16T09:41:46;99117.84;;;31.77;38.41
11912;BME280;6016;41.928;25.556;2023-07-16T09:44:14;99241.09;;;32.60;38.89
11912;BME280;6016;41.928;25.556;2023-07-16T09:46:40;99265.78;;;32.95;35.37
11912;BME280;6016;41.928;25.556;2023-07-16T09:49:09;99254.84;;;32.95;35.97
11912;BME280;6016;41.928;25.556;2023-07-16T09:51:37;99271.56;;;33.18;34.33
11912;BME280;6016;41.928;25.556;2023-07-16T09:54:05;99261.66;;;33.27;35.88
11912;BME280;6016;41.928;25.556;2023-07-16T09:56:35;99257.44;;;33.40;34.83
11912;BME280;6016;41.928;25.556;2023-07-16T09:59:05;99152.28;;;32.68;34.88
11912;BME280;6016;41.928;25.556;2023-07-16T10:01:36;99240.28;;;33.34;35.39
11912;BME280;6016;41.928;25.556;2023-07-16T10:04:13;99253.31;;;33.48;36.76
11912;BME280;6016;41.928;25.556;2023-07-16T10:06:51;99232.00;;;33.39;36.26
11912;BME280;6016;41.928;25.556;2023-07-16T10:09:35;99251.03;;;33.55;34.64
11912;BME280;6016;41.928;25.556;2023-07-16T10:12:23;99245.03;;;33.53;33.94
11912;BME280;6016;41.928;25.556;2023-07-16T10:14:52;99205.81;;;33.33;36.52
11912;BME280;6016;41.928;25.556;2023-07-16T10:17:20;99241.16;;;33.59;36.36
11912;BME280;6016;41.928;25.556;2023-07-16T10:19:50;99094.16;;;32.62;35.02
11912;BME280;6016;41.928;25.556;2023-07-16T10:22:18;99174.66;;;33.05;37.24
11912;BME280;6016;41.928;25.556;2023-07-16T10:24:51;99236.38;;;33.40;35.84
11912;BME280;6016;41.928;25.556;2023-07-16T10:27:27;99224.91;;;33.38;35.05
11912;BME280;6016;41.928;25.556;2023-07-16T10:29:54;99224.03;;;33.43;36.12
11912;BME280;6016;41.928;25.556;2023-07-16T10:32:21;99193.41;;;33.17;34.22
11912;BME280;6016;41.928;25.556;2023-07-16T10:34:49;99225.16;;;33.42;37.07
11912;BME280;6016;41.928;25.556;2023-07-16T10:37:16;99222.69;;;33.46;35.06
11912;BME280;6016;41.928;25.556;2023-07-16T10:39:47;99215.75;;;33.53;35.75
11912;BME280;6016;41.928;25.556;2023-07-16T10:42:15;99218.53;;;33.48;36.17
11912;BME280;6016;41.928;25.556;2023-07-16T10:44:42;99215.81;;;33.48;35.76
11912;BME280;6016;41.928;25.556;2023-07-16T10:47:09;99210.81;;;33.56;36.63
11912;BME280;6016;41.928;25.556;2023-07-16T10:49:36;99209.97;;;33.55;34.44
11912;BME280;6016;41.928;25.556;2023-07-16T10:52:05;99063.22;;;32.67;36.21
11912;BME280;6016;41.928;25.556;2023-07-16T10:54:32;99202.25;;;33.62;36.13
11912;BME280;6016;41.928;25.556;2023-07-16T10:56:59;99206.00;;;33.72;35.30
11912;BME280;6016;41.928;25.556;2023-07-16T10:59:25;99199.91;;;33.75;36.40
11912;BME280;6016;41.928;25.556;2023-07-16T11:01:52;99195.47;;;33.79;35.57
11912;BME280;6016;41.928;25.556;2023-07-16T11:04:19;99191.88;;;33.84;35.63
11912;BME280;6016;41.928;25.556;2023-07-16T11:06:46;99182.41;;;33.76;35.88
11912;BME280;6016;41.928;25.556;2023-07-16T11:09:14;99170.56;;;33.80;35.37
11912;BME280;6016;41.928;25.556;2023-07-16T11:11:41;99106.69;;;33.47;36.34
11912;BME280;6016;41.928;25.556;2023-07-16T11:14:08;99175.22;;;34.04;36.68
11912;BME280;6016;41.928;25.556;2023-07-16T11:16:35;99129.88;;;33.74;34.22
11912;BME280;6016;41.928;25.556;2023-07-16T11:19:04;99177.13;;;34.04;36.55
11912;BME280;6016;41.928;25.556;2023-07-16T11:21:32;99173.66;;;33.98;36.51
11912;BME280;6016;41.928;25.556;2023-07-16T11:24:08;99022.38;;;33.05;37.14
11912;BME280;6016;41.928;25.556;2023-07-16T11:26:36;99131.22;;;33.76;36.68
11912;BME280;6016;41.928;25.556;2023-07-16T11:29:12;99163.16;;;34.05;36.40
11912;BME280;6016;41.928;25.556;2023-07-16T11:31:39;99029.75;;;33.29;36.89
11912;BME280;6016;41.928;25.556;2023-07-16T11:34:07;99161.59;;;34.18;35.25
11912;BME280;6016;41.928;25.556;2023-07-16T11:36:34;99148.72;;;34.00;36.23
11912;BME280;6016;41.928;25.556;2023-07-16T11:39:02;99131.69;;;34.03;33.78
11912;BME280;6016;41.928;25.556;2023-07-16T11:41:29;99139.31;;;34.06;35.32
11912;BME280;6016;41.928;25.556;2023-07-16T11:44:01;99151.19;;;34.20;35.50
11912;BME280;6016;41.928;25.556;2023-07-16T11:46:31;99128.09;;;34.07;36.00
11912;BME280;6016;41.928;25.556;2023-07-16T11:48:58;99156.41;;;34.36;34.56
11912;BME280;6016;41.928;25.556;2023-07-16T11:51:25;99065.56;;;33.76;35.73
11912;BME280;6016;41.928;25.556;2023-07-16T11:53:52;99155.16;;;34.47;36.15
11912;BME280;6016;41.928;25.556;2023-07-16T11:56:19;99089.31;;;34.00;35.89
11912;BME280;6016;41.928;25.556;2023-07-16T11:58:45;99151.81;;;34.50;36.07
11912;BME280;6016;41.928;25.556;2023-07-16T12:01:14;99127.41;;;34.35;34.76
11912;BME280;6016;41.928;25.556;2023-07-16T12:03:41;99151.69;;;34.42;35.38
11912;BME280;6016;41.928;25.556;2023-07-16T12:06:08;99139.97;;;34.36;34.44
11912;BME280;6016;41.928;25.556;2023-07-16T12:08:35;98995.78;;;33.35;35.45
11912;BME280;6016;41.928;25.556;2023-07-16T12:11:02;99125.34;;;34.27;33.33
11912;BME280;6016;41.928;25.556;2023-07-16T12:13:28;99124.06;;;34.38;35.67
11912;BME280;6016;41.928;25.556;2023-07-16T12:15:55;99120.31;;;34.34;33.32
11912;BME280;6016;41.928;25.556;2023-07-16T12:18:23;99148.25;;;34.50;34.08
11912;BME280;6016;41.928;25.556;2023-07-16T12:20:50;99112.38;;;34.32;33.10
11912;BME280;6016;41.928;25.556;2023-07-16T12:23:17;99146.25;;;34.56;34.35
11912;BME280;6016;41.928;25.556;2023-07-16T12:25:44;99144.13;;;34.53;34.68
11912;BME280;6016;41.928;25.556;2023-07-16T12:28:11;99141.97;;;34.49;33.25
11912;BME280;6016;41.928;25.556;2023-07-16T12:30:38;99140.72;;;34.42;33.34
11912;BME280;6016;41.928;25.556;2023-07-16T12:33:05;98879.50;;;32.80;34.76
11912;BME280;6016;41.928;25.556;2023-07-16T12:35:33;99137.66;;;34.43;36.34
11912;BME280;6016;41.928;25.556;2023-07-16T12:38:00;99139.47;;;34.53;35.15
11912;BME280;6016;41.928;25.556;2023-07-16T12:40:28;99079.16;;;34.20;34.81
11912;BME280;6016;41.928;25.556;2023-07-16T12:42:56;99134.72;;;34.59;33.97
11912;BME280;6016;41.928;25.556;2023-07-16T12:45:22;99133.22;;;34.67;36.09
11912;BME280;6016;41.928;25.556;2023-07-16T12:47:49;99083.41;;;34.45;34.90
11912;BME280;6016;41.928;25.556;2023-07-16T12:50:16;98982.53;;;33.81;36.05
11912;BME280;6016;41.928;25.556;2023-07-16T12:52:45;99126.13;;;34.79;35.84
11912;BME280;6016;41.928;25.556;2023-07-16T12:55:12;99128.66;;;34.76;35.85
11912;BME280;6016;41.928;25.556;2023-07-16T12:57:39;99120.16;;;34.77;34.57
11912;BME280;6016;41.928;25.556;2023-07-16T13:00:07;99116.59;;;34.77;36.19
11912;BME280;6016;41.928;25.556;2023-07-16T13:02:36;98945.09;;;33.62;37.04